createdAt,value
2023-06-18T00:00:06.586Z,24.70
2023-06-18T00:01:06.650Z,24.69
2023-06-18T00:02:06.603Z,24.70
2023-06-18T00:03:06.670Z,24.69
2023-06-18T00:04:06.701Z,24.69
2023-06-18T00:05:06.701Z,24.69
2023-06-18T00:06:06.717Z,24.70
2023-06-18T00:07:06.741Z,24.69
2023-06-18T00:08:06.788Z,24.69
2023-06-18T00:09:06.792Z,24.69
2023-06-18T00:10:06.824Z,24.69
2023-06-18T00:11:06.851Z,24.69
2023-06-18T00:12:06.871Z,24.69
2023-06-18T00:13:06.885Z,24.69
2023-06-18T00:14:06.921Z,24.69
2023-06-18T00:15:06.965Z,24.69
2023-06-18T00:16:07.023Z,24.69
2023-06-18T00:17:07.024Z,24.69
2023-06-18T00:18:07.031Z,24.68
2023-06-18T00:19:07.057Z,24.68
2023-06-18T00:20:07.081Z,24.68
2023-06-18T00:21:07.107Z,24.69
2023-06-18T00:22:07.131Z,24.68
2023-06-18T00:23:07.159Z,24.69
2023-06-18T00:24:07.233Z,24.68
2023-06-18T00:25:07.203Z,24.69
2023-06-18T00:26:07.220Z,24.68
2023-06-18T00:27:07.245Z,24.69
2023-06-18T00:28:07.269Z,24.69
2023-06-18T00:29:07.286Z,24.69
2023-06-18T00:30:07.310Z,24.68
2023-06-18T00:31:07.339Z,24.68
2023-06-18T00:32:07.355Z,24.69
2023-06-18T00:33:07.470Z,24.68
2023-06-18T00:34:07.414Z,24.68
2023-06-18T00:35:07.446Z,24.68
2023-06-18T00:36:07.477Z,24.68
2023-06-18T00:37:07.486Z,24.68
2023-06-18T00:38:07.532Z,24.67
2023-06-18T00:39:07.541Z,24.68
2023-06-18T00:40:07.577Z,24.68
2023-06-18T00:41:07.610Z,24.67
2023-06-18T00:42:07.614Z,24.68
2023-06-18T00:43:07.646Z,24.68
2023-06-18T00:44:07.669Z,24.67
2023-06-18T00:45:07.706Z,24.68
2023-06-18T00:46:07.724Z,24.68
2023-06-18T00:47:07.836Z,24.67
2023-06-18T00:48:07.820Z,24.67
2023-06-18T00:49:07.814Z,24.67
2023-06-18T00:50:07.859Z,24.67
2023-06-18T00:51:07.870Z,24.67
2023-06-18T00:52:07.934Z,24.67
2023-06-18T00:53:07.923Z,24.66
2023-06-18T00:54:07.948Z,24.67
2023-06-18T00:55:08.002Z,24.67
2023-06-18T00:56:07.998Z,24.67
2023-06-18T00:57:08.062Z,24.67
2023-06-18T00:58:08.052Z,24.67
2023-06-18T00:59:08.099Z,24.66
2023-06-18T01:00:08.126Z,24.66
2023-06-18T01:01:08.143Z,24.66
2023-06-18T01:02:08.256Z,24.66
2023-06-18T01:03:08.227Z,24.66
2023-06-18T01:04:08.268Z,24.65
2023-06-18T01:05:08.266Z,24.66
2023-06-18T01:06:08.324Z,24.66
2023-06-18T01:07:08.327Z,24.64
2023-06-18T01:08:08.355Z,24.65
2023-06-18T01:09:08.392Z,24.65
2023-06-18T01:10:08.428Z,24.65
2023-06-18T01:11:08.443Z,24.65
2023-06-18T01:12:08.477Z,24.64
2023-06-18T01:13:08.461Z,24.64
2023-06-18T01:14:08.490Z,24.65
2023-06-18T01:15:08.442Z,24.65
2023-06-18T01:16:08.538Z,24.64
2023-06-18T01:17:08.697Z,24.64
2023-06-18T01:18:08.506Z,24.64
2023-06-18T01:19:08.372Z,24.63
2023-06-18T01:20:08.378Z,24.64
2023-06-18T01:21:08.402Z,24.63
2023-06-18T01:22:08.321Z,24.64
2023-06-18T01:23:08.335Z,24.63
2023-06-18T01:24:08.319Z,24.64
2023-06-18T01:25:08.374Z,24.64
2023-06-18T01:26:08.384Z,24.64
2023-06-18T01:27:08.402Z,24.63
2023-06-18T01:28:08.456Z,24.64
2023-06-18T01:29:08.459Z,24.64
2023-06-18T01:30:08.491Z,24.63
2023-06-18T01:31:08.534Z,24.63
2023-06-18T01:32:08.551Z,24.63
2023-06-18T01:33:08.578Z,24.63
2023-06-18T01:34:08.609Z,24.63
2023-06-18T01:35:08.658Z,24.63
2023-06-18T01:36:08.672Z,24.63
2023-06-18T01:37:08.711Z,24.63
2023-06-18T01:38:08.741Z,24.63
2023-06-18T01:39:08.787Z,24.63
2023-06-18T01:40:08.808Z,24.62
2023-06-18T01:41:08.853Z,24.62
2023-06-18T01:42:08.881Z,24.62
2023-06-18T01:43:08.909Z,24.62
2023-06-18T01:44:08.936Z,24.62
2023-06-18T01:45:08.981Z,24.62
2023-06-18T01:46:09.057Z,24.62
2023-06-18T01:47:09.065Z,24.61
2023-06-18T01:48:09.113Z,24.61
2023-06-18T01:49:09.101Z,24.61
2023-06-18T01:50:09.153Z,24.61
2023-06-18T01:51:09.177Z,24.61
2023-06-18T01:52:09.236Z,24.61
2023-06-18T01:53:09.232Z,24.61
2023-06-18T01:54:09.299Z,24.61
2023-06-18T01:55:09.326Z,24.61
2023-06-18T01:56:09.341Z,24.61
2023-06-18T01:57:09.375Z,24.60
2023-06-18T01:58:09.419Z,24.61
2023-06-18T01:59:09.458Z,24.61
2023-06-18T02:00:09.509Z,24.60
2023-06-18T02:01:09.534Z,24.60
2023-06-18T02:02:09.562Z,24.60
2023-06-18T02:03:09.733Z,24.60
2023-06-18T02:04:09.638Z,24.60
2023-06-18T02:05:09.680Z,24.59
2023-06-18T02:06:09.708Z,24.60
2023-06-18T02:07:09.757Z,24.60
2023-06-18T02:08:09.789Z,24.60
2023-06-18T02:09:09.836Z,24.59
2023-06-18T02:10:09.882Z,24.60
2023-06-18T02:11:09.888Z,24.59
2023-06-18T02:12:09.942Z,24.59
2023-06-18T02:13:09.964Z,24.58
2023-06-18T02:14:09.991Z,24.58
2023-06-18T02:15:10.133Z,24.59
2023-06-18T02:16:10.162Z,24.59
2023-06-18T02:17:10.100Z,24.59
2023-06-18T02:18:10.189Z,24.58
2023-06-18T02:19:10.184Z,24.59
2023-06-18T02:20:10.243Z,24.59
2023-06-18T02:21:10.250Z,24.58
2023-06-18T02:22:10.309Z,24.58
2023-06-18T02:23:10.435Z,24.57
2023-06-18T02:24:10.450Z,24.57
2023-06-18T02:25:10.512Z,24.58
2023-06-18T02:26:10.429Z,24.58
2023-06-18T02:27:10.476Z,24.58
2023-06-18T02:28:10.449Z,24.57
2023-06-18T02:29:10.460Z,24.57
2023-06-18T02:30:10.431Z,24.57
2023-06-18T02:31:10.411Z,24.57
2023-06-18T02:32:10.435Z,24.57
2023-06-18T02:33:10.382Z,24.57
2023-06-18T02:34:10.335Z,24.57
2023-06-18T02:35:10.303Z,24.57
2023-06-18T02:36:10.266Z,24.57
2023-06-18T02:37:10.305Z,24.57
2023-06-18T02:38:10.427Z,24.57
2023-06-18T02:39:10.507Z,24.56
2023-06-18T02:40:10.462Z,24.57
2023-06-18T02:41:10.448Z,24.56
2023-06-18T02:42:10.486Z,24.56
2023-06-18T02:43:10.539Z,24.56
2023-06-18T02:44:10.574Z,24.57
2023-06-18T02:45:10.614Z,24.56
2023-06-18T02:46:10.665Z,24.56
2023-06-18T02:47:10.690Z,24.56
2023-06-18T02:48:10.727Z,24.56
2023-06-18T02:49:10.772Z,24.56
2023-06-18T02:50:10.817Z,24.56
2023-06-18T02:51:10.845Z,24.55
2023-06-18T02:52:10.878Z,24.55
2023-06-18T02:53:10.920Z,24.55
2023-06-18T02:54:10.966Z,24.55
2023-06-18T02:55:11.005Z,24.54
2023-06-18T02:56:11.029Z,24.54
2023-06-18T02:57:11.078Z,24.54
2023-06-18T02:58:11.068Z,24.54
2023-06-18T02:59:11.042Z,24.54
2023-06-18T03:00:11.026Z,24.54
2023-06-18T03:01:11.026Z,24.54
2023-06-18T03:02:10.988Z,24.54
2023-06-18T03:03:11.007Z,24.53
2023-06-18T03:04:10.931Z,24.53
2023-06-18T03:05:11.005Z,24.54
2023-06-18T03:06:10.905Z,24.53
2023-06-18T03:07:10.922Z,24.53
2023-06-18T03:08:10.979Z,24.53
2023-06-18T03:09:11.005Z,24.53
2023-06-18T03:10:11.048Z,24.54
2023-06-18T03:11:11.090Z,24.53
2023-06-18T03:12:11.123Z,24.53
2023-06-18T03:13:11.232Z,24.53
2023-06-18T03:14:11.202Z,24.53
2023-06-18T03:15:11.248Z,24.52
2023-06-18T03:16:11.319Z,24.52
2023-06-18T03:17:11.318Z,24.52
2023-06-18T03:18:11.366Z,24.52
2023-06-18T03:19:11.339Z,24.52
2023-06-18T03:20:11.323Z,24.52
2023-06-18T03:21:11.288Z,24.52
2023-06-18T03:22:11.279Z,24.52
2023-06-18T03:23:11.253Z,24.52
2023-06-18T03:24:11.233Z,24.52
2023-06-18T03:25:11.206Z,24.51
2023-06-18T03:26:11.194Z,24.52
2023-06-18T03:27:11.162Z,24.52
2023-06-18T03:28:11.142Z,24.51
2023-06-18T03:29:11.139Z,24.52
2023-06-18T03:30:11.230Z,24.51
2023-06-18T03:31:11.216Z,24.51
2023-06-18T03:32:11.266Z,24.51
2023-06-18T03:33:11.325Z,24.52
2023-06-18T03:34:11.343Z,24.51
2023-06-18T03:35:11.410Z,24.51
2023-06-18T03:36:11.430Z,24.51
2023-06-18T03:37:11.474Z,24.51
2023-06-18T03:38:11.531Z,24.51
2023-06-18T03:39:11.553Z,24.51
2023-06-18T03:40:13.823Z,24.51
2023-06-18T03:41:11.763Z,24.51
2023-06-18T03:42:11.799Z,24.50
2023-06-18T03:43:11.845Z,24.50
2023-06-18T03:44:11.896Z,24.50
2023-06-18T03:45:11.936Z,24.50
2023-06-18T03:46:12.015Z,24.50
2023-06-18T03:47:12.016Z,24.51
2023-06-18T03:48:12.161Z,24.50
2023-06-18T03:49:12.102Z,24.50
2023-06-18T03:50:12.156Z,24.50
2023-06-18T03:51:12.202Z,24.50
2023-06-18T03:52:12.227Z,24.50
2023-06-18T03:53:12.278Z,24.50
2023-06-18T03:54:12.334Z,24.50
2023-06-18T03:55:12.364Z,24.50
2023-06-18T03:56:12.410Z,24.49
2023-06-18T03:57:12.444Z,24.50
2023-06-18T03:58:12.498Z,24.49
2023-06-18T03:59:12.572Z,24.49
2023-06-18T04:00:12.600Z,24.48
2023-06-18T04:01:12.650Z,24.48
2023-06-18T04:02:14.637Z,24.48
2023-06-18T04:03:12.711Z,24.49
2023-06-18T04:04:12.657Z,24.48
2023-06-18T04:05:12.617Z,24.48
2023-06-18T04:06:12.597Z,24.48
2023-06-18T04:07:12.573Z,24.47
2023-06-18T04:08:12.590Z,24.48
2023-06-18T04:09:12.540Z,24.48
2023-06-18T04:10:12.533Z,24.48
2023-06-18T04:11:12.514Z,24.48
2023-06-18T04:12:12.482Z,24.48
2023-06-18T04:13:12.458Z,24.47
2023-06-18T04:14:12.438Z,24.48
2023-06-18T04:15:12.428Z,24.48
2023-06-18T04:16:12.405Z,24.48
2023-06-18T04:17:12.379Z,24.48
2023-06-18T04:18:12.440Z,24.48
2023-06-18T04:19:12.398Z,24.47
2023-06-18T04:20:12.480Z,24.47
2023-06-18T04:21:12.506Z,24.47
2023-06-18T04:22:12.549Z,24.47
2023-06-18T04:23:12.593Z,24.47
2023-06-18T04:24:12.637Z,24.48
2023-06-18T04:25:12.703Z,24.47
2023-06-18T04:26:12.742Z,24.48
2023-06-18T04:27:12.785Z,24.48
2023-06-18T04:28:12.835Z,24.47
2023-06-18T04:29:12.878Z,24.48
2023-06-18T04:30:12.913Z,24.47
2023-06-18T04:31:12.974Z,24.47
2023-06-18T04:32:13.017Z,24.47
2023-06-18T04:33:12.989Z,24.47
2023-06-18T04:34:12.970Z,24.48
2023-06-18T04:35:12.955Z,24.47
2023-06-18T04:36:12.937Z,24.47
2023-06-18T04:37:12.925Z,24.47
2023-06-18T04:38:12.911Z,24.47
2023-06-18T04:39:12.891Z,24.47
2023-06-18T04:40:12.953Z,24.48
2023-06-18T04:41:12.846Z,24.48
2023-06-18T04:42:12.830Z,24.47
2023-06-18T04:43:12.823Z,24.47
2023-06-18T04:44:12.799Z,24.47
2023-06-18T04:45:12.797Z,24.48
2023-06-18T04:46:12.793Z,24.48
2023-06-18T04:47:12.890Z,24.47
2023-06-18T04:48:12.887Z,24.47
2023-06-18T04:49:12.915Z,24.48
2023-06-18T04:50:12.964Z,24.48
2023-06-18T04:51:13.010Z,24.47
2023-06-18T04:52:13.080Z,24.47
2023-06-18T04:53:13.099Z,24.47
2023-06-18T04:54:13.150Z,24.47
2023-06-18T04:55:13.204Z,24.47
2023-06-18T04:56:13.232Z,24.48
2023-06-18T04:57:13.293Z,24.47
2023-06-18T04:58:13.331Z,24.47
2023-06-18T04:59:13.373Z,24.49
2023-06-18T05:00:13.444Z,24.48
2023-06-18T05:01:13.473Z,24.47
2023-06-18T05:02:13.467Z,24.48
2023-06-18T05:03:13.512Z,24.48
2023-06-18T05:04:13.658Z,24.48
2023-06-18T05:05:13.481Z,24.48
2023-06-18T05:06:13.416Z,24.48
2023-06-18T05:07:13.385Z,24.48
2023-06-18T05:08:13.375Z,24.48
2023-06-18T05:09:13.364Z,24.48
2023-06-18T05:10:13.381Z,24.48
2023-06-18T05:11:13.416Z,24.49
2023-06-18T05:12:13.459Z,24.49
2023-06-18T05:13:13.508Z,24.48
2023-06-18T05:14:13.561Z,24.48
2023-06-18T05:15:13.537Z,24.47
2023-06-18T05:16:13.556Z,24.48
2023-06-18T05:17:13.514Z,24.47
2023-06-18T05:18:13.515Z,24.47
2023-06-18T05:19:13.466Z,24.47
2023-06-18T05:20:13.456Z,24.47
2023-06-18T05:21:13.424Z,24.48
2023-06-18T05:22:13.418Z,24.47
2023-06-18T05:23:13.456Z,24.48
2023-06-18T05:24:13.495Z,24.47
2023-06-18T05:25:13.515Z,24.48
2023-06-18T05:26:13.546Z,24.48
2023-06-18T05:27:13.581Z,24.48
2023-06-18T05:28:13.638Z,24.48
2023-06-18T05:29:13.699Z,24.48
2023-06-18T05:30:13.708Z,24.48
2023-06-18T05:31:13.761Z,24.48
2023-06-18T05:32:14.714Z,24.48
2023-06-18T05:33:13.796Z,24.48
2023-06-18T05:34:13.843Z,24.49
2023-06-18T05:35:13.884Z,24.48
2023-06-18T05:36:13.926Z,24.48
2023-06-18T05:37:13.957Z,24.48
2023-06-18T05:38:14.008Z,24.48
2023-06-18T05:39:14.051Z,24.49
2023-06-18T05:40:14.118Z,24.48
2023-06-18T05:41:14.140Z,24.48
2023-06-18T05:42:14.187Z,24.49
2023-06-18T05:43:14.227Z,24.49
2023-06-18T05:44:14.264Z,24.49
2023-06-18T05:45:14.310Z,24.49
2023-06-18T05:46:15.501Z,24.48
2023-06-18T05:47:14.390Z,24.49
2023-06-18T05:48:14.432Z,24.50
2023-06-18T05:49:14.468Z,24.49
2023-06-18T05:50:14.512Z,24.50
2023-06-18T05:51:14.562Z,24.50
2023-06-18T05:52:14.613Z,24.50
2023-06-18T05:53:14.667Z,24.50
2023-06-18T05:54:14.692Z,24.50
2023-06-18T05:55:14.741Z,24.50
2023-06-18T05:56:14.778Z,24.50
2023-06-18T05:57:14.830Z,24.51
2023-06-18T05:58:14.860Z,24.51
2023-06-18T05:59:14.911Z,24.51
2023-06-18T06:00:14.935Z,24.52
2023-06-18T06:01:15.066Z,24.52
2023-06-18T06:02:15.001Z,24.52
2023-06-18T06:03:15.042Z,24.53
2023-06-18T06:04:15.121Z,24.53
2023-06-18T06:05:15.145Z,24.53
2023-06-18T06:06:15.174Z,24.53
2023-06-18T06:07:15.221Z,24.54
2023-06-18T06:08:15.254Z,24.54
2023-06-18T06:09:15.293Z,24.55
2023-06-18T06:10:15.364Z,24.55
2023-06-18T06:11:15.404Z,24.54
2023-06-18T06:12:15.421Z,24.55
2023-06-18T06:13:15.456Z,24.55
2023-06-18T06:14:15.490Z,24.56
2023-06-18T06:15:15.529Z,24.56
2023-06-18T06:16:15.607Z,24.57
2023-06-18T06:17:15.608Z,24.57
2023-06-18T06:18:16.963Z,24.57
2023-06-18T06:19:15.694Z,24.58
2023-06-18T06:20:15.744Z,24.58
2023-06-18T06:21:15.770Z,24.58
2023-06-18T06:22:15.807Z,24.58
2023-06-18T06:23:15.831Z,24.58
2023-06-18T06:24:15.929Z,24.58
2023-06-18T06:25:15.906Z,24.60
2023-06-18T06:26:15.931Z,24.59
2023-06-18T06:27:15.973Z,24.60
2023-06-18T06:28:15.999Z,24.61
2023-06-18T06:29:16.038Z,24.60
2023-06-18T06:30:16.079Z,24.61
2023-06-18T06:31:16.108Z,24.61
2023-06-18T06:32:16.146Z,24.61
2023-06-18T06:33:16.190Z,24.61
2023-06-18T06:34:16.243Z,24.62
2023-06-18T06:35:16.253Z,24.62
2023-06-18T06:36:16.286Z,24.63
2023-06-18T06:37:16.308Z,24.63
2023-06-18T06:38:16.333Z,24.64
2023-06-18T06:39:16.374Z,24.63
2023-06-18T06:40:16.390Z,24.64
2023-06-18T06:41:16.433Z,24.65
2023-06-18T06:42:16.441Z,24.64
2023-06-18T06:43:16.469Z,24.64
2023-06-18T06:44:16.519Z,24.65
2023-06-18T06:45:16.549Z,24.66
2023-06-18T06:46:16.591Z,24.66
2023-06-18T06:47:16.579Z,24.66
2023-06-18T06:48:16.673Z,24.67
2023-06-18T06:49:16.614Z,24.66
2023-06-18T06:50:16.646Z,24.66
2023-06-18T06:51:16.664Z,24.66
2023-06-18T06:52:16.687Z,24.67
2023-06-18T06:53:16.708Z,24.67
2023-06-18T06:54:16.721Z,24.67
2023-06-18T06:55:16.746Z,24.66
2023-06-18T06:56:16.766Z,24.66
2023-06-18T06:57:16.780Z,24.66
2023-06-18T06:58:16.820Z,24.65
2023-06-18T06:59:16.824Z,24.66
2023-06-18T07:00:16.864Z,24.66
2023-06-18T07:01:16.924Z,24.66
2023-06-18T07:02:16.975Z,24.66
2023-06-18T07:03:16.993Z,24.66
2023-06-18T07:04:16.969Z,24.65
2023-06-18T07:05:16.995Z,24.66
2023-06-18T07:06:17.017Z,24.67
2023-06-18T07:07:17.075Z,24.67
2023-06-18T07:08:17.073Z,24.67
2023-06-18T07:09:17.095Z,24.67
2023-06-18T07:10:17.136Z,24.67
2023-06-18T07:11:17.159Z,24.67
2023-06-18T07:12:17.178Z,24.68
2023-06-18T07:13:17.201Z,24.67
2023-06-18T07:14:17.250Z,24.68
2023-06-18T07:15:17.329Z,24.68
2023-06-18T07:16:17.424Z,24.69
2023-06-18T07:17:17.258Z,24.68
2023-06-18T07:18:17.268Z,24.69
2023-06-18T07:19:17.222Z,24.70
2023-06-18T07:20:17.219Z,24.70
2023-06-18T07:21:17.191Z,24.70
2023-06-18T07:22:17.181Z,24.70
2023-06-18T07:23:17.157Z,24.72
2023-06-18T07:24:17.215Z,24.72
2023-06-18T07:25:17.127Z,24.72
2023-06-18T07:26:17.115Z,24.72
2023-06-18T07:27:17.083Z,24.73
2023-06-18T07:28:17.071Z,24.73
2023-06-18T07:29:17.048Z,24.74
2023-06-18T07:30:17.042Z,24.74
2023-06-18T07:31:17.208Z,24.75
2023-06-18T07:32:17.074Z,24.75
2023-06-18T07:33:17.119Z,24.76
2023-06-18T07:34:17.114Z,24.76
2023-06-18T07:35:17.151Z,24.76
2023-06-18T07:36:17.169Z,24.76
2023-06-18T07:37:17.171Z,24.77
2023-06-18T07:38:17.194Z,24.77
2023-06-18T07:39:17.208Z,24.76
2023-06-18T07:40:17.225Z,24.77
2023-06-18T07:41:17.244Z,24.78
2023-06-18T07:42:17.280Z,24.77
2023-06-18T07:43:17.285Z,24.78
2023-06-18T07:44:17.299Z,24.79
2023-06-18T07:45:17.339Z,24.80
2023-06-18T07:46:17.339Z,24.79
2023-06-18T07:47:17.309Z,24.80
2023-06-18T07:48:17.304Z,24.80
2023-06-18T07:49:17.277Z,24.81
2023-06-18T07:50:17.283Z,24.82
2023-06-18T07:51:17.240Z,24.81
2023-06-18T07:52:17.228Z,24.82
2023-06-18T07:53:17.213Z,24.81
2023-06-18T07:54:17.208Z,24.82
2023-06-18T07:55:17.217Z,24.83
2023-06-18T07:56:17.264Z,24.84
2023-06-18T07:57:17.180Z,24.82
2023-06-18T07:58:17.155Z,24.81
2023-06-18T07:59:17.147Z,24.82
2023-06-18T08:00:17.122Z,24.81
2023-06-18T08:01:17.110Z,24.82
2023-06-18T08:02:17.088Z,24.81
2023-06-18T08:03:17.123Z,24.83
2023-06-18T08:04:17.124Z,24.83
2023-06-18T08:05:17.062Z,24.83
2023-06-18T08:06:17.068Z,24.85
2023-06-18T08:07:17.084Z,24.85
2023-06-18T08:08:17.095Z,24.85
2023-06-18T08:09:17.096Z,24.85
2023-06-18T08:10:17.126Z,24.85
2023-06-18T08:11:17.112Z,24.86
2023-06-18T08:12:17.135Z,24.86
2023-06-18T08:13:17.151Z,24.87
2023-06-18T08:14:17.165Z,24.87
2023-06-18T08:15:17.177Z,24.88
2023-06-18T08:16:17.202Z,24.88
2023-06-18T08:17:17.176Z,24.89
2023-06-18T08:18:17.198Z,24.89
2023-06-18T08:19:17.147Z,24.89
2023-06-18T08:20:17.125Z,24.90
2023-06-18T08:21:17.104Z,24.90
2023-06-18T08:22:17.116Z,24.91
2023-06-18T08:23:17.059Z,24.91
2023-06-18T08:24:17.075Z,24.93
2023-06-18T08:25:17.023Z,24.93
2023-06-18T08:26:16.996Z,24.93
2023-06-18T08:27:16.987Z,24.94
2023-06-18T08:28:16.962Z,24.95
2023-06-18T08:29:16.940Z,24.95
2023-06-18T08:30:16.925Z,24.96
2023-06-18T08:31:16.913Z,24.96
2023-06-18T08:32:16.891Z,24.97
2023-06-18T08:33:16.908Z,24.97
2023-06-18T08:34:16.877Z,24.98
2023-06-18T08:35:16.863Z,24.98
2023-06-18T08:36:16.823Z,24.99
2023-06-18T08:37:16.807Z,25.00
2023-06-18T08:38:16.810Z,25.00
2023-06-18T08:39:16.780Z,25.01
2023-06-18T08:40:16.757Z,25.01
2023-06-18T08:41:16.758Z,25.02
2023-06-18T08:42:16.710Z,25.03
2023-06-18T08:43:16.675Z,25.03
2023-06-18T08:44:16.651Z,25.04
2023-06-18T08:45:16.649Z,25.04
2023-06-18T08:46:16.693Z,25.04
2023-06-18T08:47:16.630Z,25.05
2023-06-18T08:48:28.426Z,25.05
2023-06-18T08:49:16.588Z,25.04
2023-06-18T08:50:16.560Z,25.06
2023-06-18T08:51:16.556Z,25.06
2023-06-18T08:52:16.526Z,25.06
2023-06-18T08:53:16.487Z,25.06
2023-06-18T08:54:16.485Z,25.07
2023-06-18T08:55:16.462Z,25.08
2023-06-18T08:56:16.426Z,25.07
2023-06-18T08:57:16.392Z,25.08
2023-06-18T08:58:16.360Z,25.09
2023-06-18T08:59:16.332Z,25.09
2023-06-18T09:00:16.327Z,25.09
2023-06-18T09:01:16.296Z,25.09
2023-06-18T09:02:16.292Z,25.11
2023-06-18T09:03:16.346Z,25.11
2023-06-18T09:04:16.231Z,25.11
2023-06-18T09:05:16.203Z,25.12
2023-06-18T09:06:16.178Z,25.12
2023-06-18T09:07:16.133Z,25.12
2023-06-18T09:08:16.099Z,25.13
2023-06-18T09:09:16.078Z,25.14
2023-06-18T09:10:16.074Z,25.14
2023-06-18T09:11:16.039Z,25.15
2023-06-18T09:12:16.000Z,25.15
2023-06-18T09:13:15.987Z,25.16
2023-06-18T09:14:15.942Z,25.17
2023-06-18T09:15:15.942Z,25.16
2023-06-18T09:16:15.979Z,25.17
2023-06-18T09:17:15.922Z,25.18
2023-06-18T09:18:15.860Z,25.19
2023-06-18T09:19:15.850Z,25.18
2023-06-18T09:20:15.810Z,25.19
2023-06-18T09:21:15.794Z,25.20
2023-06-18T09:22:15.791Z,25.20
2023-06-18T09:23:15.745Z,25.20
2023-06-18T09:24:15.816Z,25.20
2023-06-18T09:25:15.700Z,25.20
2023-06-18T09:26:15.688Z,25.20
2023-06-18T09:27:15.658Z,25.22
2023-06-18T09:28:15.626Z,25.22
2023-06-18T09:29:15.594Z,25.22
2023-06-18T09:30:15.587Z,25.22
2023-06-18T09:31:15.556Z,25.23
2023-06-18T09:32:15.684Z,25.24
2023-06-18T09:33:15.516Z,25.24
2023-06-18T09:34:15.509Z,25.23
2023-06-18T09:35:15.496Z,25.25
2023-06-18T09:36:15.461Z,25.25
2023-06-18T09:37:15.437Z,25.25
2023-06-18T09:38:15.443Z,25.26
2023-06-18T09:39:15.398Z,25.26
2023-06-18T09:40:15.396Z,25.26
2023-06-18T09:41:15.395Z,25.26
2023-06-18T09:42:15.401Z,25.27
2023-06-18T09:43:15.307Z,25.27
2023-06-18T09:44:15.288Z,25.27
2023-06-18T09:45:15.265Z,25.28
2023-06-18T09:46:15.267Z,25.28
2023-06-18T09:47:15.209Z,25.29
2023-06-18T09:48:15.215Z,25.29
2023-06-18T09:49:15.170Z,25.30
2023-06-18T09:50:15.165Z,25.31
2023-06-18T09:51:15.119Z,25.31
2023-06-18T09:52:15.088Z,25.32
2023-06-18T09:53:15.074Z,25.32
2023-06-18T09:54:15.042Z,25.32
2023-06-18T09:55:15.028Z,25.33
2023-06-18T09:56:15.015Z,25.33
2023-06-18T09:57:15.060Z,25.33
2023-06-18T09:58:14.962Z,25.35
2023-06-18T09:59:14.946Z,25.35
2023-06-18T10:00:14.943Z,25.35
2023-06-18T10:01:14.913Z,25.35
2023-06-18T10:02:15.478Z,25.36
2023-06-18T10:03:14.892Z,25.37
2023-06-18T10:04:14.862Z,25.36
2023-06-18T10:05:14.831Z,25.37
2023-06-18T10:06:14.792Z,25.38
2023-06-18T10:07:14.772Z,25.38
2023-06-18T10:08:14.748Z,25.38
2023-06-18T10:09:14.826Z,25.38
2023-06-18T10:10:14.701Z,25.38
2023-06-18T10:11:14.672Z,25.38
2023-06-18T10:12:14.661Z,25.39
2023-06-18T10:13:14.638Z,25.40
2023-06-18T10:14:14.609Z,25.40
2023-06-18T10:15:14.599Z,25.40
2023-06-18T10:16:14.601Z,25.41
2023-06-18T10:17:14.529Z,25.40
2023-06-18T10:18:14.583Z,25.39
2023-06-18T10:19:14.478Z,25.40
2023-06-18T10:20:14.467Z,25.40
2023-06-18T10:21:14.440Z,25.40
2023-06-18T10:22:14.410Z,25.39
2023-06-18T10:23:14.385Z,25.41
2023-06-18T10:24:14.383Z,25.41
2023-06-18T10:25:14.377Z,25.41
2023-06-18T10:26:14.307Z,25.42
2023-06-18T10:27:14.336Z,25.42
2023-06-18T10:28:14.285Z,25.42
2023-06-18T10:29:14.271Z,25.43
2023-06-18T10:30:14.221Z,25.42
2023-06-18T10:31:14.195Z,25.42
2023-06-18T10:32:14.162Z,25.41
2023-06-18T10:33:14.128Z,25.42
2023-06-18T10:34:14.127Z,25.42
2023-06-18T10:35:14.185Z,25.42
2023-06-18T10:36:14.050Z,25.42
2023-06-18T10:37:14.029Z,25.41
2023-06-18T10:38:14.025Z,25.41
2023-06-18T10:39:24.515Z,25.42
2023-06-18T10:40:14.963Z,25.41
2023-06-18T10:41:13.925Z,25.42
2023-06-18T10:42:13.903Z,25.44
2023-06-18T10:43:13.870Z,25.44
2023-06-18T10:44:13.856Z,25.45
2023-06-18T10:45:13.962Z,25.45
2023-06-18T10:46:13.887Z,25.45
2023-06-18T10:47:13.764Z,25.46
2023-06-18T10:48:13.742Z,25.45
2023-06-18T10:49:13.711Z,25.46
2023-06-18T10:50:13.742Z,25.46
2023-06-18T10:51:13.677Z,25.47
2023-06-18T10:52:13.672Z,25.48
2023-06-18T10:53:13.615Z,25.48
2023-06-18T10:54:13.607Z,25.48
2023-06-18T10:55:13.636Z,25.49
2023-06-18T10:56:13.545Z,25.50
2023-06-18T10:57:13.502Z,25.50
2023-06-18T10:58:13.470Z,25.51
2023-06-18T10:59:13.470Z,25.50
2023-06-18T11:00:13.418Z,25.51
2023-06-18T11:01:13.419Z,25.52
2023-06-18T11:02:13.468Z,25.53
2023-06-18T11:03:13.632Z,25.53
2023-06-18T11:04:13.424Z,25.54
2023-06-18T11:05:13.508Z,25.54
2023-06-18T11:06:13.481Z,25.55
2023-06-18T11:07:13.536Z,25.55
2023-06-18T11:08:13.568Z,25.55
2023-06-18T11:09:13.615Z,25.56
2023-06-18T11:10:13.652Z,25.56
2023-06-18T11:11:13.680Z,25.57
2023-06-18T11:12:13.701Z,25.56
2023-06-18T11:13:13.752Z,25.57
2023-06-18T11:14:13.757Z,25.57
2023-06-18T11:15:13.756Z,25.57
2023-06-18T11:16:13.786Z,25.58
2023-06-18T11:17:13.776Z,25.58
2023-06-18T11:18:13.784Z,25.59
2023-06-18T11:19:13.841Z,25.59
2023-06-18T11:20:13.852Z,25.59
2023-06-18T11:21:13.899Z,25.60
2023-06-18T11:22:13.912Z,25.60
2023-06-18T11:23:13.958Z,25.61
2023-06-18T11:24:14.043Z,25.61
2023-06-18T11:25:14.042Z,25.62
2023-06-18T11:26:14.087Z,25.62
2023-06-18T11:27:14.138Z,25.62
2023-06-18T11:28:14.124Z,25.64
2023-06-18T11:29:14.151Z,25.64
2023-06-18T11:30:14.187Z,25.65
2023-06-18T11:31:14.268Z,25.65
2023-06-18T11:32:14.221Z,25.66
2023-06-18T11:33:14.239Z,25.67
2023-06-18T11:34:14.181Z,25.67
2023-06-18T11:35:14.220Z,25.68
2023-06-18T11:36:16.207Z,25.68
2023-06-18T11:37:14.224Z,25.68
2023-06-18T11:38:14.192Z,25.69
2023-06-18T11:39:14.149Z,25.69
2023-06-18T11:40:14.116Z,25.70
2023-06-18T11:41:14.107Z,25.70
2023-06-18T11:42:16.444Z,25.70
2023-06-18T11:43:14.051Z,25.71
2023-06-18T11:44:14.018Z,25.70
2023-06-18T11:45:14.009Z,25.70
2023-06-18T11:46:14.011Z,25.70
2023-06-18T11:47:13.956Z,25.69
2023-06-18T11:48:13.928Z,25.71
2023-06-18T11:49:13.916Z,25.71
2023-06-18T11:50:13.884Z,25.72
2023-06-18T11:51:13.864Z,25.72
2023-06-18T11:52:13.827Z,25.73
2023-06-18T11:53:13.843Z,25.73
2023-06-18T11:54:13.777Z,25.73
2023-06-18T11:55:13.775Z,25.74
2023-06-18T11:56:13.729Z,25.75
2023-06-18T11:57:13.704Z,25.73
2023-06-18T11:58:13.687Z,25.73
2023-06-18T11:59:13.662Z,25.72
2023-06-18T12:00:13.638Z,25.72
2023-06-18T12:01:13.635Z,25.73
2023-06-18T12:02:13.680Z,25.73
2023-06-18T12:03:13.673Z,25.72
2023-06-18T12:04:13.662Z,25.73
2023-06-18T12:05:13.562Z,25.73
2023-06-18T12:06:13.529Z,25.73
2023-06-18T12:07:13.491Z,25.73
2023-06-18T12:08:13.465Z,25.73
2023-06-18T12:09:13.441Z,25.74
2023-06-18T12:10:13.424Z,25.75
2023-06-18T12:11:13.388Z,25.76
2023-06-18T12:12:13.362Z,25.76
2023-06-18T12:13:13.333Z,25.75
2023-06-18T12:14:13.300Z,25.74
2023-06-18T12:15:13.315Z,25.75
2023-06-18T12:16:13.331Z,25.76
2023-06-18T12:17:13.222Z,25.76
2023-06-18T12:18:13.186Z,25.78
2023-06-18T12:19:13.165Z,25.78
2023-06-18T12:20:13.115Z,25.78
2023-06-18T12:21:13.099Z,25.78
2023-06-18T12:22:13.048Z,25.79
2023-06-18T12:23:13.032Z,25.79
2023-06-18T12:24:13.124Z,25.80
2023-06-18T12:25:13.110Z,25.81
2023-06-18T12:26:13.005Z,25.80
2023-06-18T12:27:12.927Z,25.81
2023-06-18T12:28:12.906Z,25.81
2023-06-18T12:29:12.876Z,25.82
2023-06-18T12:30:12.843Z,25.82
2023-06-18T12:31:12.844Z,25.82
2023-06-18T12:32:12.839Z,25.82
2023-06-18T12:33:12.821Z,25.83
2023-06-18T12:34:12.834Z,25.84
2023-06-18T12:35:12.714Z,25.84
2023-06-18T12:36:12.705Z,25.83
2023-06-18T12:37:12.711Z,25.83
2023-06-18T12:38:12.844Z,25.85
2023-06-18T12:39:12.746Z,25.86
2023-06-18T12:40:12.793Z,25.87
2023-06-18T12:41:12.862Z,25.87
2023-06-18T12:42:12.784Z,25.88
2023-06-18T12:43:12.815Z,25.89
2023-06-18T12:44:12.857Z,25.89
2023-06-18T12:45:12.830Z,25.90
2023-06-18T12:46:12.863Z,25.90
2023-06-18T12:47:12.893Z,25.91
2023-06-18T12:48:12.818Z,25.91
2023-06-18T12:49:12.717Z,25.92
2023-06-18T12:50:12.683Z,25.93
2023-06-18T12:51:12.649Z,25.94
2023-06-18T12:52:12.625Z,25.95